createdAt,value
2023-04-27T00:02:18.440Z,7.10
2023-04-27T00:06:20.664Z,6.60
2023-04-27T00:10:22.823Z,6.60
2023-04-27T00:14:28.420Z,6.70
2023-04-27T00:18:31.387Z,6.60
2023-04-27T00:22:33.480Z,6.60
2023-04-27T00:26:35.470Z,6.70
2023-04-27T00:30:37.757Z,6.60
2023-04-27T00:34:39.839Z,6.30
2023-04-27T00:38:41.740Z,6.00
2023-04-27T00:42:43.572Z,5.80
2023-04-27T00:46:46.097Z,6.20
2023-04-27T00:50:49.249Z,6.00
2023-04-27T00:54:52.357Z,6.00
2023-04-27T00:58:55.793Z,6.10
2023-04-27T01:02:57.952Z,6.20
2023-04-27T01:07:00.093Z,6.00
2023-04-27T01:11:02.108Z,6.00
2023-04-27T01:15:06.296Z,5.80
2023-04-27T01:19:09.241Z,5.80
2023-04-27T01:23:17.629Z,5.70
2023-04-27T01:27:20.045Z,5.50
2023-04-27T01:31:22.000Z,5.30
2023-04-27T01:35:25.631Z,5.50
2023-04-27T01:39:28.804Z,5.20
2023-04-27T01:43:33.685Z,5.20
2023-04-27T01:47:36.646Z,5.20
2023-04-27T01:51:40.421Z,5.40
2023-04-27T01:55:42.515Z,5.40
2023-04-27T01:59:44.729Z,5.30
2023-04-27T02:03:49.163Z,5.30
2023-04-27T02:07:51.408Z,5.10
2023-04-27T02:11:53.623Z,5.10
2023-04-27T02:15:57.479Z,5.10
2023-04-27T02:19:59.580Z,4.90
2023-04-27T02:29:12.657Z,4.70
2023-04-27T02:33:15.528Z,4.90
2023-04-27T02:37:18.378Z,5.00
2023-04-27T02:41:20.810Z,5.20
2023-04-27T02:45:22.674Z,5.20
2023-04-27T02:49:24.607Z,5.00
2023-04-27T02:53:28.445Z,5.10
2023-04-27T02:57:32.435Z,5.20
2023-04-27T03:02:27.881Z,4.80
2023-04-27T03:06:33.498Z,4.90
2023-04-27T03:11:00.752Z,4.80
2023-04-27T03:15:02.993Z,4.80
2023-04-27T03:19:05.088Z,4.80
2023-04-27T03:23:07.442Z,4.70
2023-04-27T03:27:09.766Z,4.80
2023-04-27T03:31:14.309Z,4.60
2023-04-27T03:35:16.425Z,4.60
2023-04-27T03:39:20.069Z,4.60
2023-04-27T03:43:22.581Z,4.60
2023-04-27T03:47:24.880Z,4.70
2023-04-27T03:51:27.826Z,4.70
2023-04-27T03:55:30.197Z,4.40
2023-04-27T03:59:32.542Z,4.40
2023-04-27T04:03:34.753Z,4.50
2023-04-27T04:07:36.920Z,4.40
2023-04-27T04:11:39.012Z,4.50
2023-04-27T04:15:42.105Z,4.60
2023-04-27T04:19:43.998Z,4.30
2023-04-27T04:23:45.977Z,4.30
2023-04-27T04:27:50.692Z,4.20
2023-04-27T04:31:52.865Z,4.40
2023-04-27T04:35:55.018Z,4.60
2023-04-27T04:39:57.026Z,4.60
2023-04-27T04:44:00.754Z,4.90
2023-04-27T04:48:04.378Z,4.60
2023-04-27T04:52:06.552Z,4.70
2023-04-27T04:56:12.758Z,4.80
2023-04-27T05:00:15.228Z,5.20
2023-04-27T05:04:18.875Z,5.10
2023-04-27T05:08:21.343Z,5.50
2023-04-27T05:12:23.416Z,5.40
2023-04-27T05:16:26.487Z,5.20
2023-04-27T05:20:28.505Z,5.10
2023-04-27T05:24:30.404Z,5.50
2023-04-27T05:28:32.540Z,5.30
2023-04-27T05:32:36.945Z,5.50
2023-04-27T05:36:39.567Z,5.60
2023-04-27T05:40:41.629Z,5.80
2023-04-27T05:44:43.840Z,5.90
2023-04-27T05:48:45.875Z,6.00
2023-04-27T05:52:47.971Z,6.20
2023-04-27T05:56:51.155Z,6.20
2023-04-27T06:00:57.221Z,6.00
2023-04-27T06:04:59.265Z,5.40
2023-04-27T06:09:01.414Z,5.40
2023-04-27T06:13:12.000Z,5.80
2023-04-27T06:17:14.022Z,6.20
2023-04-27T06:21:16.458Z,6.20
2023-04-27T06:25:18.695Z,6.30
2023-04-27T06:29:20.918Z,6.30
2023-04-27T06:33:22.935Z,6.40
2023-04-27T06:37:25.433Z,6.60
2023-04-27T06:41:27.778Z,6.90
2023-04-27T06:45:30.043Z,7.00
2023-04-27T06:49:31.992Z,7.30
2023-04-27T06:53:34.365Z,7.50
2023-04-27T06:57:36.602Z,7.50
2023-04-27T07:01:38.801Z,7.50
2023-04-27T07:05:41.360Z,7.80
2023-04-27T07:09:43.512Z,7.70
2023-04-27T07:13:45.553Z,6.90
2023-04-27T07:17:47.698Z,7.40
2023-04-27T07:21:50.350Z,7.80
2023-04-27T07:25:52.735Z,8.30
2023-04-27T07:29:54.809Z,8.50
2023-04-27T07:33:56.943Z,8.60
2023-04-27T07:38:01.690Z,8.60
2023-04-27T07:42:04.075Z,8.80
2023-04-27T07:46:06.504Z,8.90
2023-04-27T07:50:09.329Z,9.00
2023-04-27T07:54:11.415Z,9.10
2023-04-27T07:58:13.449Z,9.00
2023-04-27T08:02:19.786Z,8.90
2023-04-27T08:06:22.915Z,8.80
2023-04-27T08:10:25.197Z,8.80
2023-04-27T08:14:27.286Z,8.80
2023-04-27T08:18:29.538Z,8.90
2023-04-27T08:22:31.549Z,9.10
2023-04-27T08:26:35.460Z,8.70
2023-04-27T08:30:38.190Z,9.00
2023-04-27T08:34:42.719Z,9.10
2023-04-27T08:38:44.706Z,9.50
2023-04-27T08:42:59.697Z,9.40
2023-04-27T08:47:04.677Z,9.60
2023-04-27T08:51:11.377Z,9.60
2023-04-27T08:55:16.253Z,9.70
2023-04-27T08:59:18.646Z,9.80
2023-04-27T09:03:27.446Z,9.90
2023-04-27T09:07:29.895Z,10.10
2023-04-27T09:11:39.379Z,9.80
2023-04-27T09:15:59.647Z,8.70
2023-04-27T09:20:09.102Z,9.40
2023-04-27T09:24:12.937Z,9.80
2023-04-27T09:28:14.925Z,10.20
2023-04-27T09:32:20.595Z,10.20
2023-04-27T09:36:23.425Z,10.00
2023-04-27T09:40:29.574Z,10.30
2023-04-27T09:44:32.627Z,9.30
2023-04-27T09:48:34.671Z,10.00
2023-04-27T09:52:36.776Z,9.40
2023-04-27T09:56:46.539Z,9.50
2023-04-27T10:01:26.215Z,10.20
2023-04-27T10:05:46.288Z,10.80
2023-04-27T10:09:51.726Z,11.20
2023-04-27T10:13:55.513Z,10.90
2023-04-27T10:18:05.052Z,9.20
2023-04-27T10:22:09.690Z,8.80
2023-04-27T10:26:12.122Z,8.90
2023-04-27T10:30:17.777Z,9.00
2023-04-27T10:34:21.726Z,9.80
2023-04-27T10:38:30.331Z,10.50
2023-04-27T10:42:32.197Z,11.20
2023-04-27T10:46:36.424Z,11.40
2023-04-27T10:50:38.582Z,11.30
2023-04-27T10:54:46.588Z,10.70
2023-04-27T10:58:49.503Z,11.00
2023-04-27T11:02:53.780Z,11.70
2023-04-27T11:06:55.997Z,12.00
2023-04-27T11:10:58.188Z,11.60
2023-04-27T11:15:00.304Z,11.20
2023-04-27T11:19:08.773Z,10.00
2023-04-27T11:23:14.692Z,10.40
2023-04-27T11:27:18.139Z,10.40
2023-04-27T11:31:21.066Z,10.90
2023-04-27T11:35:34.706Z,11.10
2023-04-27T11:39:39.076Z,11.30
2023-04-27T11:43:49.964Z,12.20
2023-04-27T11:47:52.021Z,11.20
2023-04-27T11:51:54.095Z,10.30
2023-04-27T11:55:56.378Z,11.40
2023-04-27T12:00:02.764Z,11.40
2023-04-27T12:04:15.648Z,11.20
2023-04-27T12:08:18.219Z,12.30
2023-04-27T12:12:24.457Z,12.60
2023-04-27T12:16:26.836Z,13.00
2023-04-27T12:20:28.796Z,11.30
2023-04-27T12:24:31.403Z,12.20
2023-04-27T12:28:33.415Z,13.10
2023-04-27T12:32:36.056Z,13.20
2023-04-27T12:36:38.055Z,13.30
2023-04-27T12:40:40.135Z,13.20
2023-04-27T12:44:42.312Z,13.40
2023-04-27T12:48:44.962Z,13.30
2023-04-27T12:52:48.016Z,13.30
2023-04-27T12:56:49.914Z,12.80
2023-04-27T13:00:52.063Z,13.00
2023-04-27T13:04:54.223Z,13.00
2023-04-27T13:08:56.876Z,13.60
2023-04-27T13:12:59.971Z,13.20
2023-04-27T13:17:02.642Z,13.20
2023-04-27T13:21:05.796Z,13.30
2023-04-27T13:25:09.416Z,13.20
2023-04-27T13:29:11.736Z,13.00
2023-04-27T13:33:22.451Z,13.90
2023-04-27T13:37:25.770Z,13.90
2023-04-27T13:41:28.449Z,14.10
2023-04-27T13:45:30.473Z,13.30
2023-04-27T13:49:32.547Z,13.00
2023-04-27T13:53:34.702Z,13.50
2023-04-27T13:57:37.718Z,12.60
2023-04-27T14:01:40.305Z,13.60
2023-04-27T14:05:43.913Z,13.90
2023-04-27T14:09:45.874Z,14.10
2023-04-27T14:13:47.812Z,14.00
2023-04-27T14:17:50.191Z,13.40
2023-04-27T14:21:52.340Z,13.90
2023-04-27T14:25:54.542Z,14.10
2023-04-27T14:29:57.118Z,13.60
2023-04-27T14:33:59.277Z,13.30
2023-04-27T14:38:04.270Z,13.80
2023-04-27T14:42:06.329Z,13.60
2023-04-27T14:46:20.306Z,14.10
2023-04-27T14:50:22.887Z,14.30
2023-04-27T14:54:25.238Z,14.40
2023-04-27T14:58:27.497Z,14.20
2023-04-27T15:02:31.212Z,14.40
2023-04-27T15:06:36.145Z,14.30
2023-04-27T15:10:38.427Z,14.10
2023-04-27T15:14:40.897Z,13.90
2023-04-27T15:18:43.306Z,14.00
2023-04-27T15:22:45.337Z,13.80
2023-04-27T15:26:48.452Z,14.10
2023-04-27T15:30:51.129Z,14.40
2023-04-27T15:34:53.389Z,13.90
2023-04-27T15:38:55.978Z,14.00
2023-04-27T15:42:58.120Z,14.20
2023-04-27T15:47:00.357Z,14.40
2023-04-27T15:51:04.042Z,14.40
2023-04-27T15:55:06.503Z,14.50
2023-04-27T15:59:08.685Z,14.20
2023-04-27T16:03:11.328Z,13.90
2023-04-27T16:07:13.927Z,14.30
2023-04-27T16:11:16.109Z,14.50
2023-04-27T16:15:18.341Z,13.90
2023-04-27T16:19:20.749Z,14.30
2023-04-27T16:23:24.379Z,13.90
2023-04-27T16:27:26.850Z,14.20
2023-04-27T16:31:30.467Z,14.50
2023-04-27T16:35:33.579Z,14.50
2023-04-27T16:39:36.283Z,14.60
2023-04-27T16:43:38.320Z,14.80
2023-04-27T16:47:40.267Z,15.00
2023-04-27T16:51:42.458Z,14.80
2023-04-27T16:55:44.705Z,14.60
2023-04-27T16:59:46.870Z,14.70
2023-04-27T17:03:49.037Z,14.60
2023-04-27T17:07:51.353Z,14.40
2023-04-27T17:11:53.351Z,14.30
2023-04-27T17:15:55.479Z,14.60
2023-04-27T17:19:58.075Z,14.50
2023-04-27T17:24:00.316Z,14.60
2023-04-27T17:28:02.315Z,14.40
2023-04-27T17:32:05.095Z,14.50
2023-04-27T17:36:07.431Z,14.40
2023-04-27T17:40:10.405Z,14.30
2023-04-27T17:44:12.822Z,14.40
2023-04-27T17:48:15.132Z,14.20
2023-04-27T17:52:17.323Z,14.30
2023-04-27T17:56:19.518Z,14.30
2023-04-27T18:00:22.666Z,14.20
2023-04-27T18:04:24.949Z,14.10
2023-04-27T18:08:27.201Z,14.10
2023-04-27T18:12:29.212Z,14.00
2023-04-27T18:16:31.537Z,13.90
2023-04-27T18:20:33.827Z,13.70
2023-04-27T18:24:36.006Z,13.60
2023-04-27T18:28:40.204Z,13.50
2023-04-27T18:32:42.431Z,13.30
2023-04-27T18:36:50.936Z,13.20
2023-04-27T18:40:54.097Z,13.00
2023-04-27T18:44:59.923Z,12.90
2023-04-27T18:49:03.354Z,12.80
2023-04-27T18:53:06.217Z,12.70
2023-04-27T18:57:08.756Z,12.20
2023-04-27T19:01:19.349Z,12.10
2023-04-27T19:05:21.744Z,12.00
2023-04-27T19:09:23.818Z,12.00
2023-04-27T19:13:26.006Z,11.80
2023-04-27T19:17:28.365Z,11.40
2023-04-27T19:21:31.592Z,11.40
2023-04-27T19:25:33.861Z,11.50
2023-04-27T19:29:55.675Z,11.30
2023-04-27T19:34:04.121Z,10.70
2023-04-27T19:38:07.474Z,10.50
2023-04-27T19:42:09.727Z,10.70
2023-04-27T19:46:11.743Z,10.80
2023-04-27T19:50:13.999Z,10.80
2023-04-27T19:54:17.202Z,10.70
2023-04-27T19:58:19.734Z,10.60
2023-04-27T20:37:44.369Z,9.70
2023-04-27T20:41:46.748Z,9.90
2023-04-27T20:45:48.827Z,10.20
2023-04-27T20:49:51.288Z,10.10
2023-04-27T20:53:53.812Z,9.90
2023-04-27T20:57:56.102Z,9.70
2023-04-27T21:01:58.073Z,8.90
2023-04-27T21:06:00.386Z,9.10
2023-04-27T21:52:23.529Z,9.30
2023-04-27T21:57:36.525Z,9.00
2023-04-27T22:01:57.852Z,9.00
2023-04-27T22:07:27.531Z,8.90
2023-04-27T22:12:06.618Z,9.10
2023-04-27T22:17:27.597Z,9.10
2023-04-27T22:21:48.086Z,9.10
2023-04-27T22:25:50.017Z,9.10
2023-04-27T22:29:52.045Z,9.10
2023-04-27T22:33:54.220Z,9.20
2023-04-27T22:37:56.361Z,9.20
2023-04-27T22:41:58.556Z,9.10
2023-04-27T22:46:00.768Z,9.30
2023-04-27T22:50:03.381Z,9.30
2023-04-27T22:54:05.670Z,9.00
2023-04-27T22:58:07.603Z,8.70
2023-04-27T23:02:09.715Z,8.70
2023-04-27T23:06:15.206Z,8.70
2023-04-27T23:10:18.763Z,8.50
2023-04-27T23:14:21.131Z,8.60
2023-04-27T23:18:22.975Z,8.40
2023-04-27T23:22:25.502Z,8.80
2023-04-27T23:26:27.510Z,8.50
2023-04-27T23:30:30.611Z,8.40
2023-04-27T23:34:32.923Z,8.50
2023-04-27T23:38:35.064Z,8.40
2023-04-27T23:42:36.956Z,8.10
2023-04-27T23:46:39.279Z,8.10
2023-04-27T23:50:41.166Z,8.40
2023-04-27T23:54:43.212Z,8.40
2023-04-27T23:58:45.460Z,8.60
